Time;durP1;ratioP1;P1;durP2;ratioP2;P2;SDS_P1;SDS_P2;PMS_P1;PMS_P2;Temp;Humidity;BMP_temperature;BMP_pressure;BME280_temperature;BME280_humidity;BME280_pressure;Samples;Min_cycle;Max_cycle;Signal;HPM_P1;HPM_P2
2021/12/07 00:02:23;;;;;;;46.60;24.10;;;;;;;0.51;75.84;98466.08;102825;1319;99342;-71
2021/12/07 00:04:54;;;;;;;44.80;23.40;;;;;;;0.48;75.87;98465.83;102794;1319;97337;-71
2021/12/07 00:07:25;;;;;;;46.60;23.90;;;;;;;0.49;76.01;98470.52;102825;1323;111055;-71
2021/12/07 00:09:53;;;;;;;48.40;25.20;;;;;;;0.48;75.85;98465.68;102894;1323;99210;-71
2021/12/07 00:12:21;;;;;;;45.60;24.50;;;;;;;0.48;75.95;98463.41;102972;1318;107983;-72
2021/12/07 00:14:51;;;;;;;46.10;24.70;;;;;;;0.49;75.98;98465.80;102961;1322;99355;-72
2021/12/07 00:17:20;;;;;;;42.60;22.80;;;;;;;0.49;75.96;98464.92;102889;1319;99272;-72
2021/12/07 00:19:47;;;;;;;50.60;26.40;;;;;;;0.49;75.89;98467.35;102884;1323;111847;-72
2021/12/07 00:22:15;;;;;;;51.90;28.10;;;;;;;0.47;76.00;98469.18;102999;1322;100336;-71
2021/12/07 00:24:43;;;;;;;53.30;28.60;;;;;;;0.47;75.89;98470.95;102856;1319;107595;-71
2021/12/07 00:27:11;;;;;;;52.80;26.00;;;;;;;0.47;75.84;98468.14;102873;1318;99288;-72
2021/12/07 00:29:39;;;;;;;48.90;25.10;;;;;;;0.48;75.95;98470.05;102839;1325;99342;-71
2021/12/07 00:37:41;;;;;;;48.50;23.30;;;;;;;0.49;75.92;98462.15;102756;1318;107838;-71
2021/12/07 00:40:14;;;;;;;43.50;23.30;;;;;;;0.48;75.98;98460.94;102742;1322;99359;-71
2021/12/07 00:42:41;;;;;;;43.70;22.80;;;;;;;0.48;75.95;98462.88;102811;1318;98516;-71
2021/12/07 00:45:14;;;;;;;43.60;22.80;;;;;;;0.48;75.91;98460.61;102842;1319;112871;-71
2021/12/07 00:47:42;;;;;;;42.70;23.00;;;;;;;0.47;75.93;98451.05;102810;1322;99138;-71
2021/12/07 00:50:12;;;;;;;44.70;22.70;;;;;;;0.47;75.94;98449.30;102854;1318;107797;-71
2021/12/07 00:52:40;;;;;;;42.30;21.00;;;;;;;0.48;75.86;98449.46;102847;1319;99313;-71
2021/12/07 00:55:12;;;;;;;42.80;22.20;;;;;;;0.48;75.92;98450.52;102812;1318;97920;-75
2021/12/07 00:57:40;;;;;;;41.60;22.30;;;;;;;0.47;76.01;98456.45;102856;1319;112785;-69
2021/12/07 01:00:15;;;;;;;45.10;21.90;;;;;;;0.45;75.81;98463.70;102774;1318;99244;-71
2021/12/07 01:02:43;;;;;;;38.30;18.80;;;;;;;0.45;75.92;98465.96;102717;1322;107940;-71
2021/12/07 01:05:19;;;;;;;41.90;22.50;;;;;;;0.46;75.94;98465.41;102774;1318;99758;-71
2021/12/07 01:07:57;;;;;;;41.00;21.20;;;;;;;0.43;75.89;98459.73;102725;1318;99348;-71
2021/12/07 01:27:12;;;;;;;43.40;23.10;;;;;;;0.47;76.05;98438.66;102881;1322;98940;-72
2021/12/07 01:29:43;;;;;;;47.40;24.70;;;;;;;0.47;76.04;98444.23;102969;1323;107833;-72
2021/12/07 01:32:25;;;;;;;44.40;23.90;;;;;;;0.47;76.00;98451.91;102950;1319;99361;-71
2021/12/07 01:59:35;;;;;;;46.40;23.60;;;;;;;0.39;75.94;98420.70;102845;1318;99325;-72
2021/12/07 02:02:12;;;;;;;45.30;23.00;;;;;;;0.37;76.01;98420.40;102843;1319;99223;-71
2021/12/07 02:04:42;;;;;;;44.40;22.10;;;;;;;0.36;75.94;98426.21;102997;1320;112910;-71
2021/12/07 02:07:12;;;;;;;45.70;22.70;;;;;;;0.34;75.93;98433.80;102963;1318;97772;-71
2021/12/07 02:09:46;;;;;;;42.70;21.70;;;;;;;0.34;75.92;98437.82;102957;1319;108175;-71
2021/12/07 02:12:17;;;;;;;44.70;21.60;;;;;;;0.35;75.94;98440.89;102921;1320;99242;-71
2021/12/07 02:14:45;;;;;;;44.10;21.90;;;;;;;0.36;76.11;98436.67;102864;1322;99123;-72
2021/12/07 02:17:22;;;;;;;40.80;20.70;;;;;;;0.38;76.18;98436.27;102798;1322;112724;-72
2021/12/07 02:19:50;;;;;;;41.30;20.60;;;;;;;0.39;76.00;98436.39;102891;1319;97918;-72
2021/12/07 02:22:18;;;;;;;40.30;21.20;;;;;;;0.40;76.05;98432.33;102894;1319;108652;-73
2021/12/07 02:24:47;;;;;;;42.20;21.30;;;;;;;0.41;76.06;98431.21;102813;1320;99097;-72
2021/12/07 02:27:15;;;;;;;37.80;18.90;;;;;;;0.42;75.90;98427.33;102892;1322;97550;-72
2021/12/07 02:29:42;;;;;;;38.70;20.40;;;;;;;0.43;76.08;98430.10;102789;1322;113747;-72
2021/12/07 02:32:18;;;;;;;40.90;20.70;;;;;;;0.44;75.85;98429.00;100227;1357;635887;-71
2021/12/07 02:34:59;;;;;;;40.30;20.40;;;;;;;0.39;75.85;98427.82;102327;1329;94268;-72
2021/12/07 02:37:32;;;;;;;38.30;19.50;;;;;;;0.38;76.05;98424.58;102394;1326;94251;-71
2021/12/07 02:40:03;;;;;;;37.20;20.10;;;;;;;0.38;75.97;98425.27;102339;1329;107389;-72
2021/12/07 02:42:31;;;;;;;37.40;18.60;;;;;;;0.36;75.96;98429.53;103030;1319;94282;-72
2021/12/07 02:45:02;;;;;;;39.00;19.30;;;;;;;0.35;75.98;98434.79;103060;1320;126428;-72
2021/12/07 02:47:35;;;;;;;37.80;19.00;;;;;;;0.34;76.02;98434.84;103105;1316;94337;-71
2021/12/07 02:50:05;;;;;;;39.20;20.50;;;;;;;0.33;75.93;98431.21;103113;1317;93830;-71
2021/12/07 02:52:36;;;;;;;40.30;20.70;;;;;;;0.33;75.95;98432.77;103177;1320;107451;-71
2021/12/07 02:55:07;;;;;;;39.90;21.30;;;;;;;0.33;75.98;98436.09;103123;1317;94374;-72
2021/12/07 02:57:37;;;;;;;40.30;20.30;;;;;;;0.34;75.96;98439.38;103155;1316;107891;-72
2021/12/07 03:00:15;;;;;;;41.40;20.60;;;;;;;0.34;75.97;98441.28;103124;1317;94562;-73
2021/12/07 03:03:00;;;;;;;39.70;21.20;;;;;;;0.35;75.90;98445.25;103195;1320;95187;-72
2021/12/07 03:28:00;;;;;;;43.30;21.40;;;;;;;0.23;75.90;98458.42;103148;1317;95137;-71
2021/12/07 03:30:28;;;;;;;44.30;22.70;;;;;;;0.24;75.93;98462.09;103205;1317;95583;-72
2021/12/07 03:32:56;;;;;;;42.10;21.20;;;;;;;0.24;76.00;98460.53;103182;1317;108830;-72
2021/12/07 03:35:24;;;;;;;47.70;23.20;;;;;;;0.23;75.98;98463.16;103190;1317;95046;-71
2021/12/07 03:37:54;;;;;;;43.60;21.40;;;;;;;0.23;75.93;98461.41;103093;1317;107741;-72
2021/12/07 03:40:23;;;;;;;41.50;20.60;;;;;;;0.24;75.96;98456.17;103148;1317;95194;-72
2021/12/07 03:42:51;;;;;;;43.00;21.10;;;;;;;0.24;75.99;98456.70;103185;1320;95246;-72
2021/12/07 03:45:19;;;;;;;47.90;25.00;;;;;;;0.23;76.04;98454.09;103081;1316;108789;-72
2021/12/07 03:47:47;;;;;;;49.20;24.00;;;;;;;0.24;76.00;98456.33;103118;1316;95368;-72
2021/12/07 03:50:14;;;;;;;45.20;23.00;;;;;;;0.25;75.95;98457.70;103215;1316;106947;-72
2021/12/07 03:52:42;;;;;;;48.10;25.20;;;;;;;0.25;75.90;98458.55;103711;1309;94346;-72
2021/12/07 03:55:10;;;;;;;49.20;24.30;;;;;;;0.25;76.02;98459.77;103518;1317;94231;-72
2021/12/07 03:57:38;;;;;;;49.50;24.40;;;;;;;0.25;76.02;98459.77;103386;1313;108546;-71
2021/12/07 04:00:10;;;;;;;47.80;23.00;;;;;;;0.25;75.91;98461.38;103688;1315;95335;-71
2021/12/07 04:02:40;;;;;;;48.60;23.10;;;;;;;0.24;75.91;98460.86;103559;1317;107990;-70
2021/12/07 04:05:15;;;;;;;47.70;23.20;;;;;;;0.25;75.98;98466.92;103504;1313;94283;-70
2021/12/07 04:07:43;;;;;;;46.40;22.60;;;;;;;0.25;75.96;98468.84;103501;1313;94256;-71
2021/12/07 04:10:16;;;;;;;51.70;24.00;;;;;;;0.25;75.94;98466.23;103655;1311;108690;-71
2021/12/07 04:12:45;;;;;;;40.70;18.90;;;;;;;0.24;75.98;98467.34;103546;1310;95255;-71
2021/12/07 04:15:17;;;;;;;50.70;24.70;;;;;;;0.23;76.01;98467.36;103635;1317;107931;-71
2021/12/07 04:17:47;;;;;;;52.40;24.70;;;;;;;0.22;76.06;98470.52;103339;1313;95345;-70
2021/12/07 04:20:18;;;;;;;53.90;24.70;;;;;;;0.22;75.90;98472.96;103627;1317;95188;-70
2021/12/07 04:22:48;;;;;;;53.00;25.00;;;;;;;0.22;75.89;98478.38;103617;1316;108711;-71
2021/12/07 04:25:19;;;;;;;54.60;25.70;;;;;;;0.21;75.96;98478.42;103665;1310;95271;-71
2021/12/07 04:27:47;;;;;;;51.10;26.60;;;;;;;0.20;75.94;98481.26;103375;1317;107841;-70
2021/12/07 04:30:25;;;;;;;55.90;27.70;;;;;;;0.19;75.93;98483.23;103695;1311;96445;-72
2021/12/07 04:32:55;;;;;;;51.80;27.20;;;;;;;0.18;75.94;98480.49;103619;1307;95229;-71
2021/12/07 04:35:26;;;;;;;60.70;29.20;;;;;;;0.17;75.93;98478.59;103634;1310;109670;-71
2021/12/07 04:37:55;;;;;;;56.60;27.80;;;;;;;0.16;75.98;98472.70;103552;1314;94233;-70
2021/12/07 04:40:26;;;;;;;53.40;26.80;;;;;;;0.16;76.01;98479.85;103534;1316;108370;-75
2021/12/07 04:42:57;;;;;;;53.00;26.20;;;;;;;0.16;75.95;98487.71;103716;1310;94250;-71
2021/12/07 04:48:22;;;;;;;54.10;25.00;;;;;;;0.13;75.99;98487.09;103702;1311;108777;-69
2021/12/07 04:59:23;;;;;;;54.50;25.00;;;;;;;0.10;75.86;98480.44;103493;1316;95380;-70
2021/12/07 05:01:53;;;;;;;52.20;24.70;;;;;;;0.08;75.93;98479.45;103543;1311;108972;-70
2021/12/07 05:04:26;;;;;;;52.50;25.90;;;;;;;0.10;76.05;98479.21;103507;1313;94957;-70
2021/12/07 05:07:08;;;;;;;56.90;27.20;;;;;;;0.11;76.02;98477.60;103460;1316;108545;-69
2021/12/07 05:10:08;;;;;;;51.90;24.90;;;;;;;0.11;75.92;98481.96;103680;1314;95196;-71
2021/12/07 05:12:37;;;;;;;58.00;26.80;;;;;;;0.10;75.90;98481.30;103721;1311;95179;-71
2021/12/07 05:15:26;;;;;;;49.90;24.10;;;;;;;0.11;75.95;98484.77;103510;1314;109007;-70
2021/12/07 05:18:21;;;;;;;55.10;24.00;;;;;;;0.11;76.01;98491.38;103754;1311;95197;-69
2021/12/07 05:37:56;;;;;;;55.40;25.40;;;;;;;0.09;76.02;98505.25;103083;1320;94383;-68
2021/12/07 05:40:35;;;;;;;51.90;24.70;;;;;;;0.07;75.95;98510.87;103343;1320;95240;-69
2021/12/07 05:43:06;;;;;;;53.60;23.10;;;;;;;0.05;76.03;98512.36;103057;1316;108803;-69
2021/12/07 05:45:39;;;;;;;56.50;26.80;;;;;;;0.04;76.00;98515.00;103427;1314;95187;-70
2021/12/07 05:48:09;;;;;;;53.00;26.30;;;;;;;0.04;75.98;98515.35;103650;1310;107580;-70
2021/12/07 05:50:40;;;;;;;60.30;26.40;;;;;;;0.03;75.95;98517.14;103481;1313;95319;-69
2021/12/07 05:53:11;;;;;;;62.70;28.30;;;;;;;0.01;76.00;98518.61;103726;1314;95769;-69
2021/12/07 05:55:41;;;;;;;59.90;28.00;;;;;;;-0.00;76.06;98523.71;103514;1314;108726;-69
2021/12/07 05:58:16;;;;;;;60.80;26.70;;;;;;;0.00;76.06;98526.84;103686;1311;94246;-68
2021/12/07 06:00:47;;;;;;;62.70;28.30;;;;;;;0.02;75.92;98525.38;103699;1310;107780;-70
2021/12/07 06:03:18;;;;;;;65.90;28.70;;;;;;;0.02;76.05;98532.02;103491;1313;95207;-69
2021/12/07 06:05:46;;;;;;;62.70;28.00;;;;;;;-0.02;75.98;98533.02;103558;1311;94233;-69
2021/12/07 06:08:14;;;;;;;65.90;26.70;;;;;;;-0.02;75.94;98535.47;103607;1313;108820;-70
2021/12/07 06:10:42;;;;;;;60.50;28.60;;;;;;;-0.03;76.00;98537.25;103741;1314;94858;-68
2021/12/07 06:13:12;;;;;;;71.30;30.60;;;;;;;-0.05;76.04;98538.36;103661;1310;107770;-70
2021/12/07 06:15:44;;;;;;;67.80;32.50;;;;;;;-0.08;76.06;98540.04;103614;1318;95313;-70
2021/12/07 06:18:14;;;;;;;75.00;32.80;;;;;;;-0.09;76.11;98540.06;103497;1317;94365;-70
2021/12/07 06:20:45;;;;;;;65.30;28.80;;;;;;;-0.10;76.01;98533.86;103680;1317;109411;-73
2021/12/07 06:23:17;;;;;;;63.50;29.40;;;;;;;-0.09;76.06;98533.30;103671;1311;94214;-71
2021/12/07 06:25:48;;;;;;;62.20;27.30;;;;;;;-0.09;76.07;98532.59;103278;1314;108141;-69
2021/12/07 06:28:18;;;;;;;66.10;30.70;;;;;;;-0.09;75.97;98532.63;103541;1317;95201;-69
2021/12/07 06:30:50;;;;;;;70.40;31.30;;;;;;;-0.09;75.95;98538.17;103589;1311;94554;-69
2021/12/07 06:33:21;;;;;;;69.30;32.10;;;;;;;-0.10;76.13;98539.96;103285;1313;109407;-70
2021/12/07 06:35:51;;;;;;;65.40;31.00;;;;;;;-0.09;76.04;98541.13;103186;1317;95187;-70
2021/12/07 06:38:19;;;;;;;69.60;31.70;;;;;;;-0.09;76.03;98539.57;103664;1316;108091;-69
2021/12/07 06:40:47;;;;;;;68.70;30.60;;;;;;;-0.08;76.06;98537.94;103579;1310;95178;-70
2021/12/07 06:43:15;;;;;;;66.00;31.30;;;;;;;-0.08;76.02;98532.73;103527;1310;95173;-69
2021/12/07 06:45:43;;;;;;;65.50;31.20;;;;;;;-0.09;75.95;98529.63;103587;1310;107684;-69
2021/12/07 06:48:11;;;;;;;66.90;30.80;;;;;;;-0.08;76.12;98526.98;103342;1317;96299;-69
2021/12/07 06:50:39;;;;;;;65.50;27.90;;;;;;;-0.07;75.95;98529.04;103614;1310;107922;-70
2021/12/07 06:53:07;;;;;;;66.30;29.30;;;;;;;-0.07;76.10;98528.83;103684;1317;94284;-70
2021/12/07 06:55:35;;;;;;;67.40;30.30;;;;;;;-0.07;76.08;98530.08;103631;1310;94655;-71
2021/12/07 06:58:05;;;;;;;67.80;31.10;;;;;;;-0.09;75.99;98527.17;103676;1310;110157;-70
2021/12/07 07:00:33;;;;;;;66.40;30.20;;;;;;;-0.09;76.09;98529.45;103622;1316;94565;-71
2021/12/07 07:03:02;;;;;;;66.40;30.70;;;;;;;-0.08;76.08;98531.84;103639;1314;108030;-71
2021/12/07 07:05:30;;;;;;;69.00;32.50;;;;;;;-0.08;76.12;98533.23;103657;1306;94314;-71
2021/12/07 07:07:59;;;;;;;68.00;30.80;;;;;;;-0.06;76.07;98535.63;103684;1311;96537;-71
2021/12/07 07:10:27;;;;;;;66.40;30.00;;;;;;;-0.05;76.13;98539.06;103709;1314;110116;-70
2021/12/07 07:12:55;;;;;;;63.40;28.20;;;;;;;-0.06;76.05;98536.13;103721;1311;96609;-70
2021/12/07 07:15:23;;;;;;;68.70;31.10;;;;;;;-0.06;76.14;98540.13;103700;1310;107836;-69
2021/12/07 07:17:51;;;;;;;69.40;30.30;;;;;;;-0.06;76.12;98539.77;103682;1311;94535;-71
2021/12/07 07:20:19;;;;;;;66.30;30.60;;;;;;;-0.06;76.09;98545.17;103694;1310;96619;-72
2021/12/07 07:22:47;;;;;;;67.90;30.90;;;;;;;-0.06;76.13;98552.16;103569;1313;110112;-69
2021/12/07 07:25:15;;;;;;;65.00;30.70;;;;;;;-0.05;76.21;98551.61;103585;1310;96580;-70
2021/12/07 07:27:44;;;;;;;71.90;32.30;;;;;;;-0.03;76.23;98553.45;103350;1314;108209;-71
2021/12/07 07:30:15;;;;;;;71.00;33.40;;;;;;;-0.01;76.25;98555.13;103668;1313;96653;-70
2021/12/07 07:32:45;;;;;;;65.60;29.70;;;;;;;0.00;76.22;98555.44;103727;1311;96505;-71
2021/12/07 07:35:15;;;;;;;60.70;28.80;;;;;;;0.01;76.10;98562.01;103552;1316;110224;-71
2021/12/07 07:37:45;;;;;;;64.50;30.50;;;;;;;0.02;76.14;98566.34;103502;1313;96705;-70
2021/12/07 07:40:18;;;;;;;57.60;27.50;;;;;;;0.02;76.18;98565.27;103635;1311;107217;-70
2021/12/07 07:42:46;;;;;;;;;;;;;;;0.03;76.19;98567.34;103617;1310;94329;-69
2021/12/07 07:45:15;;;;;;;58.90;26.40;;;;;;;0.01;76.25;98558.70;103600;1311;95292;-71
2021/12/07 07:47:44;;;;;;;53.70;26.10;;;;;;;0.00;75.99;98556.84;103645;1314;110165;-69
2021/12/07 07:50:13;;;;;;;56.60;26.70;;;;;;;-0.03;76.09;98555.73;103326;1314;96686;-70
2021/12/07 07:52:42;;;;;;;55.00;26.00;;;;;;;-0.05;75.95;98558.77;103559;1309;106403;-70
2021/12/07 07:55:13;;;;;;;56.30;26.20;;;;;;;-0.06;76.00;98558.79;103522;1310;96568;-70
2021/12/07 07:57:42;;;;;;;56.70;25.90;;;;;;;-0.08;76.01;98562.33;103649;1311;96599;-70
2021/12/07 08:00:16;;;;;;;52.80;25.60;;;;;;;-0.07;76.09;98562.64;103502;1317;109965;-73
2021/12/07 08:02:45;;;;;;;53.80;25.90;;;;;;;-0.06;76.06;98560.52;103531;1313;96531;-70
2021/12/07 08:05:16;;;;;;;55.40;26.30;;;;;;;-0.05;76.10;98562.59;103371;1313;107893;-71
2021/12/07 08:07:47;;;;;;;54.30;26.50;;;;;;;-0.04;76.15;98562.38;103460;1317;96644;-71
2021/12/07 08:10:21;;;;;;;52.50;24.40;;;;;;;-0.02;76.03;98563.88;103502;1313;96549;-70
2021/12/07 08:12:49;;;;;;;54.00;24.40;;;;;;;-0.01;76.15;98565.59;103717;1311;110070;-70
2021/12/07 08:15:18;;;;;;;57.50;26.50;;;;;;;-0.01;76.05;98563.48;103482;1314;96525;-70
2021/12/07 08:17:46;;;;;;;56.90;27.30;;;;;;;0.00;76.08;98568.16;103493;1313;107818;-70
2021/12/07 08:20:14;;;;;;;57.80;27.30;;;;;;;-0.01;75.98;98570.98;103660;1310;94224;-70
2021/12/07 08:22:42;;;;;;;57.80;28.10;;;;;;;-0.03;76.02;98570.36;103708;1310;94334;-70
2021/12/07 08:25:11;;;;;;;52.20;24.80;;;;;;;-0.04;76.08;98568.67;103652;1311;110163;-70
2021/12/07 08:27:39;;;;;;;56.70;25.60;;;;;;;-0.05;76.18;98567.99;103489;1317;96392;-70
2021/12/07 08:30:12;;;;;;;52.00;25.40;;;;;;;-0.08;76.21;98573.67;103569;1316;108544;-70
2021/12/07 08:32:45;;;;;;;54.70;25.40;;;;;;;-0.07;76.08;98575.38;103766;1311;96533;-70
2021/12/07 08:35:17;;;;;;;57.80;26.40;;;;;;;-0.06;76.07;98572.39;103503;1313;96660;-71
2021/12/07 08:37:49;;;;;;;54.10;26.20;;;;;;;-0.05;76.13;98574.43;103324;1313;110170;-69
2021/12/07 08:40:24;;;;;;;55.50;25.40;;;;;;;-0.03;76.25;98569.84;103536;1310;96724;-70
2021/12/07 08:42:52;;;;;;;53.20;24.20;;;;;;;-0.02;76.15;98575.91;103477;1314;107820;-70
2021/12/07 08:45:22;;;;;;;54.40;24.30;;;;;;;-0.02;76.22;98573.61;103579;1311;95695;-70
2021/12/07 08:47:50;;;;;;;51.00;24.00;;;;;;;-0.02;76.03;98572.24;103627;1310;93968;-70
2021/12/07 08:50:23;;;;;;;58.20;26.50;;;;;;;-0.03;76.06;98571.94;103547;1313;110254;-70
2021/12/07 08:52:55;;;;;;;52.20;24.90;;;;;;;-0.03;76.25;98573.48;103581;1317;96493;-70
2021/12/07 09:01:06;;;;;;;58.10;26.20;;;;;;;0.01;76.07;98573.17;103389;1313;96673;-71
2021/12/07 09:03:37;;;;;;;53.20;25.20;;;;;;;0.00;76.04;98574.96;103369;1314;107855;-71
2021/12/07 09:06:07;;;;;;;61.10;27.50;;;;;;;0.03;76.16;98583.40;103288;1313;94257;-70
2021/12/07 09:08:35;;;;;;;62.80;29.40;;;;;;;0.05;76.08;98584.17;103433;1316;107581;-70
2021/12/07 09:11:09;;;;;;;57.50;26.60;;;;;;;0.08;76.06;98590.36;103431;1314;97020;-69
2021/12/07 09:13:41;;;;;;;57.40;25.30;;;;;;;0.10;76.10;98590.45;103484;1313;94250;-70
2021/12/07 09:16:12;;;;;;;54.80;25.50;;;;;;;0.11;76.05;98588.68;103439;1313;110231;-72
2021/12/07 09:18:41;;;;;;;59.60;26.20;;;;;;;0.13;76.09;98584.42;103283;1312;94366;-69
2021/12/07 09:21:10;;;;;;;56.30;26.00;;;;;;;0.14;76.14;98584.34;103388;1313;108981;-70
2021/12/07 09:23:38;;;;;;;59.30;27.10;;;;;;;0.15;76.06;98584.53;103399;1313;94276;-70
2021/12/07 09:26:09;;;;;;;104.40;53.00;;;;;;;0.15;76.12;98593.23;103454;1313;96612;-70
2021/12/07 09:28:38;;;;;;;86.40;38.30;;;;;;;0.17;76.12;98592.81;103458;1313;110109;-70
2021/12/07 09:31:08;;;;;;;58.60;27.90;;;;;;;0.19;76.09;98587.14;103435;1312;96658;-70
2021/12/07 09:33:38;;;;;;;53.10;25.20;;;;;;;0.22;76.10;98579.19;103464;1313;105644;-70
2021/12/07 09:36:10;;;;;;;52.20;24.90;;;;;;;0.24;76.19;98575.45;103409;1313;96522;-70
2021/12/07 09:38:41;;;;;;;55.10;24.40;;;;;;;0.23;76.12;98579.64;103400;1313;96612;-71
2021/12/07 09:41:12;;;;;;;51.90;24.40;;;;;;;0.23;76.08;98587.89;103239;1316;110172;-71
2021/12/07 09:43:43;;;;;;;52.40;23.90;;;;;;;0.19;76.00;98590.81;103408;1317;96690;-70
2021/12/07 09:46:15;;;;;;;47.00;22.60;;;;;;;0.17;75.99;98585.66;103457;1313;106948;-70
2021/12/07 09:48:45;;;;;;;47.40;23.10;;;;;;;0.17;76.04;98575.72;103443;1316;96529;-71
2021/12/07 09:51:18;;;;;;;47.50;22.40;;;;;;;0.15;76.08;98566.88;103486;1313;96408;-70
2021/12/07 09:53:50;;;;;;;48.40;23.60;;;;;;;0.16;75.94;98566.88;103466;1314;108734;-70
2021/12/07 09:56:21;;;;;;;49.50;23.40;;;;;;;0.18;76.10;98569.94;103464;1316;96539;-70
2021/12/07 09:58:54;;;;;;;50.70;23.50;;;;;;;0.18;75.98;98568.20;103467;1317;107673;-70
2021/12/07 10:01:26;;;;;;;53.00;24.30;;;;;;;0.17;76.15;98566.64;103378;1313;94642;-70
2021/12/07 10:03:55;;;;;;;50.40;25.80;;;;;;;0.18;76.09;98569.77;103261;1311;95216;-71
2021/12/07 10:06:25;;;;;;;54.30;26.60;;;;;;;0.18;75.98;98569.23;103426;1313;110140;-71
2021/12/07 10:08:54;;;;;;;53.80;26.10;;;;;;;0.19;76.02;98571.63;103401;1312;97462;-71
2021/12/07 10:11:24;;;;;;;58.60;27.10;;;;;;;0.21;76.06;98572.27;103442;1312;105985;-70
2021/12/07 10:13:53;;;;;;;54.90;26.80;;;;;;;0.22;76.16;98571.69;103409;1313;96496;-70
2021/12/07 10:16:24;;;;;;;55.80;26.60;;;;;;;0.24;76.05;98574.02;103413;1313;94280;-71
2021/12/07 10:18:59;;;;;;;60.90;29.20;;;;;;;0.27;76.14;98571.30;103242;1313;108226;-73
2021/12/07 10:21:38;;;;;;;57.10;27.20;;;;;;;0.28;76.10;98572.52;103426;1312;94776;-71
2021/12/07 10:24:11;;;;;;;53.10;26.40;;;;;;;0.26;75.99;98576.74;103379;1313;107891;-70
2021/12/07 10:26:47;;;;;;;56.40;26.60;;;;;;;0.27;76.10;98576.02;103229;1312;94994;-70
2021/12/07 10:29:22;;;;;;;;;;;;;;;0.29;76.09;98576.14;103233;1310;96757;-70
2021/12/07 10:32:00;;;;;;;55.60;26.00;;;;;;;0.27;76.13;98567.64;103366;1312;110267;-70
2021/12/07 10:34:35;;;;;;;65.10;29.20;;;;;;;0.28;76.12;98567.27;103333;1313;96561;-69
2021/12/07 10:37:08;;;;;;;61.60;29.30;;;;;;;0.29;76.17;98563.56;103254;1313;107838;-71
2021/12/07 10:39:44;;;;;;;58.20;28.30;;;;;;;0.30;76.01;98566.67;103211;1313;96644;-70
2021/12/07 10:42:21;;;;;;;60.90;27.20;;;;;;;0.31;76.07;98564.91;103257;1315;96649;-70
2021/12/07 10:45:06;;;;;;;66.90;30.50;;;;;;;0.29;76.13;98567.25;103289;1313;137512;-70
2021/12/07 10:47:37;;;;;;;66.90;31.60;;;;;;;0.28;76.05;98569.00;103415;1312;94263;-71
2021/12/07 10:50:09;;;;;;;59.70;28.60;;;;;;;0.30;76.14;98566.67;103351;1313;107921;-69
2021/12/07 10:52:42;;;;;;;59.80;28.70;;;;;;;0.30;76.04;98567.70;103403;1313;96546;-70
2021/12/07 10:55:20;;;;;;;58.00;27.60;;;;;;;0.30;76.06;98561.43;103402;1313;94308;-70
2021/12/07 10:57:55;;;;;;;60.00;28.10;;;;;;;0.27;75.91;98560.86;103220;1317;110183;-70
2021/12/07 11:00:50;;;;;;;63.00;30.00;;;;;;;0.25;75.95;98561.29;103292;1315;96627;-70
2021/12/07 11:03:25;;;;;;;61.70;27.50;;;;;;;0.23;75.89;98564.66;103340;1316;107981;-70
2021/12/07 11:05:56;;;;;;;62.00;28.10;;;;;;;0.20;75.92;98564.27;103305;1312;97024;-70
2021/12/07 11:08:29;;;;;;;62.60;30.10;;;;;;;0.18;75.94;98564.86;103372;1317;96565;-69
2021/12/07 11:10:57;;;;;;;64.70;29.60;;;;;;;0.19;76.04;98563.77;103401;1313;107870;-70
2021/12/07 11:13:36;;;;;;;62.00;29.60;;;;;;;0.20;76.00;98558.34;103333;1313;95152;-70
2021/12/07 11:16:14;;;;;;;65.60;28.70;;;;;;;0.20;76.05;98556.77;103939;1313;107490;-69
2021/12/07 11:18:48;;;;;;;65.80;30.10;;;;;;;0.22;76.08;98556.70;103388;1317;95075;-73
2021/12/07 11:21:23;;;;;;;59.80;28.40;;;;;;;0.21;76.04;98559.85;103443;1313;94374;-72
2021/12/07 11:23:55;;;;;;;67.50;31.90;;;;;;;0.23;76.03;98562.77;103421;1312;108437;-71
2021/12/07 11:31:41;;;;;;;52.90;26.10;;;;;;;0.17;76.00;98560.19;103466;1313;96606;-71
2021/12/07 11:34:16;;;;;;;57.30;24.80;;;;;;;0.15;76.04;98562.73;103357;1313;96703;-71
2021/12/07 11:37:09;;;;;;;58.30;26.20;;;;;;;0.12;75.97;98563.70;103446;1313;110273;-71
2021/12/07 11:39:47;;;;;;;55.20;24.30;;;;;;;0.10;75.95;98561.50;103472;1313;96617;-70
2021/12/07 11:42:27;;;;;;;56.60;24.30;;;;;;;0.10;76.06;98562.03;103438;1313;107349;-71
2021/12/07 11:44:55;;;;;;;64.10;28.00;;;;;;;0.09;76.12;98565.36;103339;1313;94593;-70
2021/12/07 11:47:35;;;;;;;62.20;28.00;;;;;;;0.08;75.89;98558.95;103451;1312;97326;-70
2021/12/07 11:50:15;;;;;;;64.10;28.50;;;;;;;0.09;76.11;98563.11;103402;1312;109983;-70
2021/12/07 11:52:48;;;;;;;61.40;26.80;;;;;;;0.11;76.15;98561.10;103423;1307;96586;-71
2021/12/07 11:55:18;;;;;;;62.30;27.30;;;;;;;0.09;76.15;98567.09;103282;1313;106097;-72
2021/12/07 11:57:48;;;;;;;59.70;26.30;;;;;;;0.09;76.00;98568.50;103369;1313;96607;-71
2021/12/07 12:00:21;;;;;;;56.80;27.50;;;;;;;0.06;76.03;98572.29;103484;1314;96637;-71
2021/12/07 12:02:48;;;;;;;57.30;27.40;;;;;;;0.04;75.98;98571.33;103423;1313;109099;-71
2021/12/07 12:05:19;;;;;;;61.50;26.60;;;;;;;0.03;76.12;98576.08;103253;1314;96635;-71
2021/12/07 12:07:50;;;;;;;60.40;28.00;;;;;;;-0.00;76.00;98574.09;103195;1313;107710;-71
2021/12/07 12:10:20;;;;;;;61.70;28.10;;;;;;;-0.02;76.00;98571.70;103237;1312;96535;-71
2021/12/07 12:12:51;;;;;;;66.40;30.60;;;;;;;-0.03;76.00;98572.27;103459;1313;96526;-70
2021/12/07 12:15:37;;;;;;;65.40;30.00;;;;;;;-0.02;75.93;98573.97;103440;1313;110138;-70
2021/12/07 12:18:08;;;;;;;62.70;29.30;;;;;;;-0.00;75.98;98569.92;103423;1313;96619;-70
2021/12/07 12:21:10;;;;;;;64.00;29.10;;;;;;;-0.00;76.02;98571.83;103399;1312;106465;-70
2021/12/07 12:23:53;;;;;;;61.90;28.50;;;;;;;-0.04;76.02;98570.59;103331;1313;96680;-70
2021/12/07 12:26:25;;;;;;;64.40;29.40;;;;;;;-0.06;75.98;98570.64;103318;1313;96535;-71
2021/12/07 12:28:55;;;;;;;62.00;28.90;;;;;;;-0.07;75.97;98568.77;103381;1313;110256;-71
2021/12/07 12:31:52;;;;;;;63.50;28.20;;;;;;;-0.10;76.02;98565.92;103346;1317;94245;-71
2021/12/07 12:34:33;;;;;;;65.60;30.10;;;;;;;-0.09;75.97;98567.80;103337;1313;107796;-70
2021/12/07 12:37:03;;;;;;;60.30;27.60;;;;;;;-0.10;76.00;98573.59;103392;1312;96608;-72
2021/12/07 12:40:02;;;;;;;60.10;28.20;;;;;;;-0.13;75.87;98577.88;103443;1314;94639;-71
2021/12/07 12:42:42;;;;;;;59.40;27.70;;;;;;;-0.14;76.03;98585.23;103244;1316;109129;-71
2021/12/07 12:45:20;;;;;;;54.40;24.80;;;;;;;-0.13;76.01;98584.34;103483;1305;96535;-71
2021/12/07 12:47:59;;;;;;;59.40;26.80;;;;;;;-0.14;75.99;98583.14;103432;1313;107874;-71
2021/12/07 12:50:36;;;;;;;61.70;27.90;;;;;;;-0.14;76.01;98586.97;103533;1314;96752;-71
2021/12/07 12:53:10;;;;;;;66.50;29.60;;;;;;;-0.11;76.15;98587.92;103365;1313;94690;-70
2021/12/07 12:55:43;;;;;;;62.00;28.00;;;;;;;-0.13;76.00;98592.02;103393;1312;110159;-71
2021/12/07 12:58:33;;;;;;;64.00;27.50;;;;;;;-0.20;75.79;98595.36;103431;1313;96551;-70
2021/12/07 13:01:16;;;;;;;63.90;29.10;;;;;;;-0.25;75.91;98595.58;103370;1313;106942;-72
2021/12/07 13:04:04;;;;;;;64.60;30.20;;;;;;;-0.24;75.99;98599.71;103486;1313;94245;-73
2021/12/07 13:06:37;;;;;;;64.70;30.50;;;;;;;-0.24;76.05;98602.48;103414;1312;96516;-70
2021/12/07 13:09:17;;;;;;;70.60;31.30;;;;;;;-0.24;76.03;98600.74;103383;1317;110100;-71
2021/12/07 13:11:52;;;;;;;68.30;30.80;;;;;;;-0.24;76.08;98605.63;103243;1313;96526;-70
2021/12/07 13:14:23;;;;;;;66.10;29.70;;;;;;;-0.22;76.01;98609.75;103310;1312;105512;-71
2021/12/07 13:16:54;;;;;;;68.50;29.90;;;;;;;-0.24;76.03;98611.73;103334;1313;96526;-70
2021/12/07 13:19:22;;;;;;;64.00;28.50;;;;;;;-0.28;75.96;98610.66;103464;1317;94343;-70
2021/12/07 13:21:50;;;;;;;73.90;31.30;;;;;;;-0.29;75.88;98611.22;103467;1313;107956;-70
2021/12/07 13:24:41;;;;;;;68.70;28.30;;;;;;;-0.30;76.09;98613.31;103460;1313;95048;-72